Time;durP1;ratioP1;P1;durP2;ratioP2;P2;SDS_P1;SDS_P2;PMS_P1;PMS_P2;Temp;Humidity;BMP_temperature;BMP_pressure;BME280_temperature;BME280_humidity;BME280_pressure;Samples;Min_cycle;Max_cycle;Signal;HPM_P1;HPM_P2
2022/03/10 00:02:02;;;;;;;;;;;2.50;99.90;;;;;;5113986;28;19991;-41
2022/03/10 00:04:28;;;;;;;;;;;2.50;99.90;;;;;;5114007;28;19919;-42
2022/03/10 00:06:53;;;;;;;;;;;2.50;99.90;;;;;;5114156;28;20362;-42
2022/03/10 00:09:19;;;;;;;;;;;2.40;99.90;;;;;;5114595;28;19907;-41
2022/03/10 00:11:46;;;;;;;;;;;2.40;99.90;;;;;;5114616;28;20306;-41
2022/03/10 00:14:12;;;;;;;;;;;2.40;99.90;;;;;;5114222;28;20357;-41
2022/03/10 00:16:38;;;;;;;;;;;2.40;99.90;;;;;;5114510;28;19918;-41
2022/03/10 00:19:03;;;;;;;;;;;2.30;99.90;;;;;;5114526;28;19999;-40
2022/03/10 00:21:29;;;;;;;;;;;2.30;99.90;;;;;;5114378;28;20278;-42
2022/03/10 00:23:54;;;;;;;;;;;2.20;99.90;;;;;;5114531;28;19912;-42
2022/03/10 00:26:20;;;;;;;;;;;2.20;99.90;;;;;;5114472;28;20328;-43
2022/03/10 00:28:45;;;;;;;;;;;2.20;99.90;;;;;;5114367;28;19920;-42
2022/03/10 00:31:11;;;;;;;;;;;2.10;99.90;;;;;;5114368;28;19908;-41
2022/03/10 00:33:36;;;;;;;;;;;2.10;99.90;;;;;;5113685;28;19931;-41
2022/03/10 00:36:02;;;;;;;;;;;2.10;99.90;;;;;;5114352;28;20255;-42
2022/03/10 00:38:28;;;;;;;;;;;2.10;99.90;;;;;;5114309;28;20357;-40
2022/03/10 00:40:53;;;;;;;;;;;2.10;99.90;;;;;;5114057;28;19915;-40
2022/03/10 00:43:19;;;;;;;;;;;2.00;99.90;;;;;;5114347;28;20308;-40
2022/03/10 00:45:45;;;;;;;;;;;2.00;99.90;;;;;;5114020;28;19912;-41
2022/03/10 00:48:10;;;;;;;;;;;2.00;99.90;;;;;;5114198;28;20281;-41
2022/03/10 00:50:36;;;;;;;;;;;2.00;99.90;;;;;;5114007;28;19935;-41
2022/03/10 00:53:02;;;;;;;;;;;2.00;99.90;;;;;;5114214;28;19915;-41
2022/03/10 00:55:27;;;;;;;;;;;2.00;99.90;;;;;;5114235;28;19911;-41
2022/03/10 00:57:53;;;;;;;;;;;2.00;99.90;;;;;;5113846;28;19958;-41
2022/03/10 01:00:19;;;;;;;;;;;1.90;99.90;;;;;;5114496;28;19914;-41
2022/03/10 01:02:44;;;;;;;;;;;2.00;99.90;;;;;;5112863;28;20006;-41
2022/03/10 01:05:10;;;;;;;;;;;2.00;99.90;;;;;;5114092;28;20408;-42
2022/03/10 01:07:36;;;;;;;;;;;2.00;99.90;;;;;;5112921;28;19960;-41
2022/03/10 01:10:05;;;;;;;;;;;2.00;99.90;;;;;;5113716;28;20274;-40
2022/03/10 01:12:31;;;;;;;;;;;2.00;99.90;;;;;;5114047;28;19919;-42
2022/03/10 01:14:56;;;;;;;;;;;1.90;99.90;;;;;;5113633;28;20235;-42
2022/03/10 01:17:22;;;;;;;;;;;1.90;99.90;;;;;;5114123;28;19915;-42
2022/03/10 01:19:48;;;;;;;;;;;1.90;99.90;;;;;;5112870;28;19915;-41
2022/03/10 01:22:13;;;;;;;;;;;1.90;99.90;;;;;;5113526;28;19915;-40
2022/03/10 01:24:41;;;;;;;;;;;2.00;99.90;;;;;;5113479;28;20014;-41
2022/03/10 01:27:07;;;;;;;;;;;2.00;99.90;;;;;;5113993;28;19998;-41
2022/03/10 01:29:33;;;;;;;;;;;2.00;99.90;;;;;;5113761;28;19919;-41
2022/03/10 01:31:58;;;;;;;;;;;1.90;99.90;;;;;;5113910;28;20453;-41
2022/03/10 01:34:24;;;;;;;;;;;1.90;99.90;;;;;;5112621;28;19978;-42
2022/03/10 01:36:50;;;;;;;;;;;1.80;99.90;;;;;;5113968;28;19914;-41
2022/03/10 01:39:15;;;;;;;;;;;1.70;99.90;;;;;;5113873;28;20250;-41
2022/03/10 01:41:41;;;;;;;;;;;1.50;99.90;;;;;;5113900;28;20415;-41
2022/03/10 01:44:08;;;;;;;;;;;1.60;99.90;;;;;;5113780;28;19912;-41
2022/03/10 01:46:34;;;;;;;;;;;1.70;99.90;;;;;;5115491;28;20353;-41
2022/03/10 01:49:00;;;;;;;;;;;1.50;99.90;;;;;;5116039;28;19908;-41
2022/03/10 01:51:26;;;;;;;;;;;1.50;99.90;;;;;;5117319;28;19908;-42
2022/03/10 01:53:51;;;;;;;;;;;1.50;99.90;;;;;;5117544;28;19908;-40
2022/03/10 01:56:21;;;;;;;;;;;1.40;99.90;;;;;;5117682;28;19915;-41
2022/03/10 01:58:47;;;;;;;;;;;1.30;99.90;;;;;;5117327;28;19912;-41
2022/03/10 02:01:15;;;;;;;;;;;1.40;99.90;;;;;;5117238;28;19970;-41
2022/03/10 02:03:41;;;;;;;;;;;1.50;99.90;;;;;;5116836;28;19961;-42
2022/03/10 02:06:06;;;;;;;;;;;1.60;99.90;;;;;;5116876;28;20011;-41
2022/03/10 02:11:16;;;;;;;;;;;1.50;99.90;;;;;;5116911;28;19953;-40
2022/03/10 02:13:42;;;;;;;;;;;1.60;99.90;;;;;;5116802;28;19911;-41
2022/03/10 02:18:56;;;;;;;;;;;1.60;99.90;;;;;;5116817;28;19914;-41
2022/03/10 02:21:21;;;;;;;;;;;1.60;99.90;;;;;;5116919;28;19908;-41
2022/03/10 02:23:47;;;;;;;;;;;1.50;99.90;;;;;;5116829;28;20273;-41
2022/03/10 02:26:12;;;;;;;;;;;1.50;99.90;;;;;;5115483;28;19912;-42
2022/03/10 02:28:39;;;;;;;;;;;1.50;99.90;;;;;;5116585;28;19945;-42
2022/03/10 02:31:04;;;;;;;;;;;1.40;99.90;;;;;;5115467;28;19915;-40
2022/03/10 02:33:30;;;;;;;;;;;1.40;99.90;;;;;;5116400;28;19912;-41
2022/03/10 02:35:55;;;;;;;;;;;1.30;99.90;;;;;;5116604;28;20383;-41
2022/03/10 02:38:21;;;;;;;;;;;1.40;99.90;;;;;;5116554;28;19908;-41
2022/03/10 02:40:47;;;;;;;;;;;1.30;99.90;;;;;;5116231;28;19912;-41
2022/03/10 02:43:13;;;;;;;;;;;1.30;99.90;;;;;;5116704;28;19908;-40
2022/03/10 02:45:38;;;;;;;;;;;1.10;99.90;;;;;;5116379;28;19919;-40
2022/03/10 02:48:04;;;;;;;;;;;1.10;99.90;;;;;;5116368;28;19908;-41
2022/03/10 02:50:29;;;;;;;;;;;1.10;99.90;;;;;;5116104;28;19999;-40
2022/03/10 02:52:55;;;;;;;;;;;1.10;99.90;;;;;;5116239;28;20002;-41
2022/03/10 02:55:21;;;;;;;;;;;1.20;99.90;;;;;;5116273;28;19912;-40
2022/03/10 02:57:47;;;;;;;;;;;1.20;99.90;;;;;;5114948;28;20330;-41
2022/03/10 03:00:16;;;;;;;;;;;1.10;99.90;;;;;;5115796;28;19908;-43
2022/03/10 03:02:42;;;;;;;;;;;1.10;99.90;;;;;;5115722;27;19922;-41
2022/03/10 03:05:08;;;;;;;;;;;1.10;99.90;;;;;;5114573;28;20387;-45
2022/03/10 03:07:34;;;;;;;;;;;1.00;99.90;;;;;;5115667;28;19915;-41
2022/03/10 03:10:00;;;;;;;;;;;1.00;99.90;;;;;;5115786;28;19930;-42
2022/03/10 03:12:26;;;;;;;;;;;1.00;99.90;;;;;;5115898;28;20350;-41
2022/03/10 03:14:52;;;;;;;;;;;1.00;99.90;;;;;;5115791;28;19912;-40
2022/03/10 03:17:17;;;;;;;;;;;1.10;99.90;;;;;;5115297;28;19907;-41
2022/03/10 03:19:43;;;;;;;;;;;1.10;99.90;;;;;;5115261;28;19965;-41
2022/03/10 03:22:08;;;;;;;;;;;1.00;99.90;;;;;;5115167;28;20026;-41
2022/03/10 03:24:34;;;;;;;;;;;1.00;99.90;;;;;;5115543;28;19916;-41
2022/03/10 03:26:59;;;;;;;;;;;1.00;99.90;;;;;;5115166;28;19911;-41
2022/03/10 03:29:25;;;;;;;;;;;0.90;99.90;;;;;;5115524;28;19920;-41
2022/03/10 03:31:50;;;;;;;;;;;0.90;99.90;;;;;;5115453;28;20002;-41
2022/03/10 03:34:16;;;;;;;;;;;0.80;99.90;;;;;;5115038;28;20354;-40
2022/03/10 03:36:42;;;;;;;;;;;0.80;99.90;;;;;;5115074;28;20427;-41
2022/03/10 03:39:08;;;;;;;;;;;0.80;99.90;;;;;;5115008;28;19908;-40
2022/03/10 03:41:33;;;;;;;;;;;1.00;99.90;;;;;;5115223;28;19982;-41
2022/03/10 03:43:59;;;;;;;;;;;0.90;99.90;;;;;;5115325;28;19959;-41
2022/03/10 03:46:24;;;;;;;;;;;1.00;99.90;;;;;;5115140;28;20351;-40
2022/03/10 03:48:50;;;;;;;;;;;0.80;99.90;;;;;;5115236;28;20006;-40
2022/03/10 03:51:16;;;;;;;;;;;0.70;99.90;;;;;;5114905;28;19907;-41
2022/03/10 03:53:41;;;;;;;;;;;0.80;99.90;;;;;;5114719;28;19915;-42
2022/03/10 03:56:07;;;;;;;;;;;0.90;99.90;;;;;;5113487;28;19908;-42
2022/03/10 03:58:32;;;;;;;;;;;1.00;99.90;;;;;;5115310;28;19908;-42
2022/03/10 04:00:58;;;;;;;;;;;1.10;99.90;;;;;;5098629;28;19966;-42
2022/03/10 04:03:23;;;;;;;;;;;0.90;99.90;;;;;;5093132;28;19940;-42
2022/03/10 04:05:49;;;;;;;;;;;1.00;99.90;;;;;;5093189;28;19916;-39
2022/03/10 04:08:14;;;;;;;;;;;0.80;99.90;;;;;;5093783;28;19969;-40
2022/03/10 04:10:40;;;;;;;;;;;0.90;99.90;;;;;;5094584;28;19919;-40
2022/03/10 04:13:06;;;;;;;;;;;0.90;99.90;;;;;;5094072;28;19908;-41
2022/03/10 04:15:32;;;;;;;;;;;1.00;99.90;;;;;;5094036;28;19908;-41
2022/03/10 04:17:58;;;;;;;;;;;0.90;99.90;;;;;;5093982;28;19912;-41
2022/03/10 04:20:24;;;;;;;;;;;0.90;99.90;;;;;;5114122;28;19907;-41
2022/03/10 04:22:49;;;;;;;;;;;0.90;99.90;;;;;;5114643;28;19908;-41
2022/03/10 04:25:15;;;;;;;;;;;1.00;99.90;;;;;;5114634;28;19911;-41
2022/03/10 04:27:40;;;;;;;;;;;0.90;99.90;;;;;;5114152;28;20282;-42
2022/03/10 04:30:06;;;;;;;;;;;0.80;99.90;;;;;;5114188;28;19920;-41
2022/03/10 04:32:45;;;;;;;;;;;0.70;99.90;;;;;;5113054;28;19908;-41
2022/03/10 04:35:13;;;;;;;;;;;0.80;99.90;;;;;;5104096;28;20392;-40
2022/03/10 04:37:38;;;;;;;;;;;0.70;99.90;;;;;;5093513;28;20347;-42
2022/03/10 04:40:08;;;;;;;;;;;0.70;99.90;;;;;;5094436;28;19923;-41
2022/03/10 04:42:33;;;;;;;;;;;0.60;99.90;;;;;;5093585;28;19912;-41
2022/03/10 04:44:59;;;;;;;;;;;0.60;99.90;;;;;;5093866;28;19912;-42
2022/03/10 04:47:24;;;;;;;;;;;0.70;99.90;;;;;;5093399;28;20370;-42
2022/03/10 04:49:50;;;;;;;;;;;0.70;99.90;;;;;;5099373;28;19935;-42
2022/03/10 04:52:16;;;;;;;;;;;0.70;99.90;;;;;;5093627;28;19958;-41
2022/03/10 04:54:41;;;;;;;;;;;0.70;99.90;;;;;;5105242;28;20261;-41
2022/03/10 04:57:07;;;;;;;;;;;0.70;99.90;;;;;;5114768;28;19907;-41
2022/03/10 04:59:32;;;;;;;;;;;0.70;99.90;;;;;;5114562;28;19956;-41
2022/03/10 05:01:58;;;;;;;;;;;0.70;99.90;;;;;;5112553;28;19949;-44
2022/03/10 05:04:24;;;;;;;;;;;0.60;99.90;;;;;;5112245;28;19908;-42
2022/03/10 05:06:50;;;;;;;;;;;0.50;99.90;;;;;;5111581;28;20002;-41
2022/03/10 05:09:15;;;;;;;;;;;0.50;99.90;;;;;;5111586;28;19904;-42
2022/03/10 05:11:41;;;;;;;;;;;0.60;99.90;;;;;;5111660;28;19992;-40
2022/03/10 05:14:07;;;;;;;;;;;0.50;99.90;;;;;;5112244;28;19904;-42
2022/03/10 05:16:33;;;;;;;;;;;0.40;99.90;;;;;;5112879;28;19908;-42
2022/03/10 05:18:58;;;;;;;;;;;0.50;99.90;;;;;;5113690;28;19904;-41
2022/03/10 05:21:24;;;;;;;;;;;0.50;99.90;;;;;;5117172;28;19904;-41
2022/03/10 05:23:52;;;;;;;;;;;0.40;99.90;;;;;;5117409;28;19907;-41
2022/03/10 05:26:18;;;;;;;;;;;0.40;99.90;;;;;;5117563;28;19953;-41
2022/03/10 05:28:43;;;;;;;;;;;0.40;99.90;;;;;;5117840;28;19959;-41
2022/03/10 05:31:09;;;;;;;;;;;0.40;99.90;;;;;;5117576;28;19954;-41
2022/03/10 05:33:34;;;;;;;;;;;0.50;99.90;;;;;;5117650;28;20283;-41
2022/03/10 05:36:00;;;;;;;;;;;0.40;99.90;;;;;;5117748;28;20262;-41
2022/03/10 05:38:25;;;;;;;;;;;0.40;99.90;;;;;;5117193;28;19946;-41
2022/03/10 05:40:51;;;;;;;;;;;0.40;99.90;;;;;;5117490;28;19998;-40
2022/03/10 05:43:16;;;;;;;;;;;0.40;99.90;;;;;;5116936;28;19904;-42
2022/03/10 05:45:42;;;;;;;;;;;0.40;99.90;;;;;;5117017;28;19919;-42
2022/03/10 05:48:08;;;;;;;;;;;0.40;99.90;;;;;;5117182;28;19904;-41
2022/03/10 05:50:35;;;;;;;;;;;0.40;99.90;;;;;;5117404;28;20132;-41
2022/03/10 05:53:00;;;;;;;;;;;0.40;99.90;;;;;;5117365;28;19904;-41
2022/03/10 05:55:26;;;;;;;;;;;0.40;99.90;;;;;;5117260;28;20338;-42
2022/03/10 05:57:52;;;;;;;;;;;0.40;99.90;;;;;;5115507;28;19991;-41
2022/03/10 06:00:18;;;;;;;;;;;0.30;99.90;;;;;;5116723;28;19910;-41
2022/03/10 06:02:43;;;;;;;;;;;0.40;99.90;;;;;;5116763;27;20350;-41
2022/03/10 06:05:09;;;;;;;;;;;0.40;99.90;;;;;;5116364;28;19908;-42
2022/03/10 06:07:35;;;;;;;;;;;0.50;99.90;;;;;;5116646;28;19951;-41
2022/03/10 06:10:00;;;;;;;;;;;0.50;99.90;;;;;;5116363;28;19943;-41
2022/03/10 06:12:27;;;;;;;;;;;0.60;99.90;;;;;;5115527;28;19994;-41
2022/03/10 06:14:56;;;;;;;;;;;0.70;99.90;;;;;;5116663;28;19930;-41
2022/03/10 06:17:22;;;;;;;;;;;0.80;99.90;;;;;;5116401;28;19904;-41
2022/03/10 06:19:49;;;;;;;;;;;0.80;99.90;;;;;;5116448;28;19956;-41
2022/03/10 06:22:15;;;;;;;;;;;0.90;99.90;;;;;;5116145;28;19904;-41
2022/03/10 06:24:41;;;;;;;;;;;1.00;99.90;;;;;;5116162;28;20364;-41
2022/03/10 06:27:06;;;;;;;;;;;1.10;99.90;;;;;;5116044;28;19908;-41
2022/03/10 06:29:32;;;;;;;;;;;1.30;99.90;;;;;;5115908;28;19998;-42
2022/03/10 06:31:58;;;;;;;;;;;1.30;99.90;;;;;;5115549;28;20076;-41
2022/03/10 06:34:23;;;;;;;;;;;1.40;99.90;;;;;;5115648;28;19910;-40
2022/03/10 06:36:49;;;;;;;;;;;1.50;99.90;;;;;;5116066;28;19911;-42
2022/03/10 06:39:14;;;;;;;;;;;1.60;99.90;;;;;;5115964;28;19910;-41
2022/03/10 06:41:40;;;;;;;;;;;1.60;99.90;;;;;;5115848;28;19908;-40
2022/03/10 06:44:05;;;;;;;;;;;1.80;99.90;;;;;;5115525;28;20342;-41
2022/03/10 06:46:32;;;;;;;;;;;1.80;99.90;;;;;;5115579;28;19918;-42
2022/03/10 06:48:57;;;;;;;;;;;1.80;99.90;;;;;;5116022;28;20011;-42
2022/03/10 06:51:23;;;;;;;;;;;2.00;99.90;;;;;;5115707;28;20359;-41
2022/03/10 06:53:49;;;;;;;;;;;2.20;99.90;;;;;;5115579;28;20338;-41
2022/03/10 06:56:14;;;;;;;;;;;2.20;99.90;;;;;;5114935;28;20226;-43
2022/03/10 06:58:40;;;;;;;;;;;2.40;99.90;;;;;;5115334;28;20334;-41
2022/03/10 07:01:05;;;;;;;;;;;2.60;99.90;;;;;;5115208;28;19995;-42
2022/03/10 07:03:31;;;;;;;;;;;2.70;99.90;;;;;;5114993;28;20248;-41
2022/03/10 07:05:56;;;;;;;;;;;2.80;99.90;;;;;;5114954;28;20354;-42
2022/03/10 07:08:22;;;;;;;;;;;2.90;99.90;;;;;;5113541;28;19904;-40
2022/03/10 07:10:47;;;;;;;;;;;3.10;99.90;;;;;;5115213;28;19926;-41
2022/03/10 07:13:13;;;;;;;;;;;3.10;99.90;;;;;;5107095;28;20397;-42
2022/03/10 07:15:39;;;;;;;;;;;3.20;99.90;;;;;;5099636;28;19908;-42
2022/03/10 07:18:05;;;;;;;;;;;3.40;99.90;;;;;;5114851;27;19912;-42
2022/03/10 07:20:30;;;;;;;;;;;3.40;99.90;;;;;;5102742;28;19933;-40
2022/03/10 07:22:56;;;;;;;;;;;3.50;99.90;;;;;;5094300;28;20036;-41
2022/03/10 07:25:21;;;;;;;;;;;3.60;99.90;;;;;;5094836;28;19938;-42
2022/03/10 07:27:47;;;;;;;;;;;3.70;99.90;;;;;;5093129;28;19916;-41
2022/03/10 07:30:13;;;;;;;;;;;3.80;99.90;;;;;;5090297;28;20443;-43
2022/03/10 07:32:38;;;;;;;;;;;3.90;99.90;;;;;;5092829;28;19912;-42
2022/03/10 07:35:04;;;;;;;;;;;3.90;99.90;;;;;;5092912;28;19908;-41
2022/03/10 07:37:29;;;;;;;;;;;4.10;99.90;;;;;;5094928;28;19919;-41
2022/03/10 07:39:55;;;;;;;;;;;4.30;99.90;;;;;;5094025;28;19919;-42
2022/03/10 07:42:21;;;;;;;;;;;4.50;99.90;;;;;;5094007;28;20370;-41
2022/03/10 07:44:46;;;;;;;;;;;4.60;99.90;;;;;;5092630;28;19916;-42
2022/03/10 07:47:12;;;;;;;;;;;4.60;99.90;;;;;;5105940;28;19919;-41
2022/03/10 07:49:37;;;;;;;;;;;4.80;99.90;;;;;;5094212;28;20243;-41
2022/03/10 07:52:03;;;;;;;;;;;5.00;99.90;;;;;;5101283;28;19951;-42
2022/03/10 07:54:29;;;;;;;;;;;5.00;99.90;;;;;;5114018;28;19977;-46
2022/03/10 07:56:54;;;;;;;;;;;5.10;99.90;;;;;;5114035;28;20354;-42
2022/03/10 07:59:20;;;;;;;;;;;5.20;99.90;;;;;;5094501;28;20252;-41
2022/03/10 08:01:46;;;;;;;;;;;5.30;99.90;;;;;;5088010;28;20252;-41
2022/03/10 08:04:11;;;;;;;;;;;5.50;99.90;;;;;;5093816;28;20015;-40
2022/03/10 08:06:37;;;;;;;;;;;5.50;99.90;;;;;;5105094;28;19962;-41
2022/03/10 08:09:04;;;;;;;;;;;5.60;99.90;;;;;;5094776;28;19912;-42
2022/03/10 08:11:30;;;;;;;;;;;5.70;99.90;;;;;;5093061;28;20251;-43
2022/03/10 08:13:55;;;;;;;;;;;5.90;99.90;;;;;;5093868;28;19953;-41
2022/03/10 08:16:21;;;;;;;;;;;6.00;99.90;;;;;;5093708;28;19912;-42
2022/03/10 08:18:49;;;;;;;;;;;6.20;99.90;;;;;;5092931;28;20001;-42
2022/03/10 08:21:15;;;;;;;;;;;6.20;99.20;;;;;;5093630;28;19974;-42
2022/03/10 08:23:41;;;;;;;;;;;6.40;99.40;;;;;;5093262;28;20275;-42
2022/03/10 08:26:06;;;;;;;;;;;6.60;99.90;;;;;;5093926;28;19924;-42
2022/03/10 08:28:33;;;;;;;;;;;6.90;99.90;;;;;;5091581;28;19919;-42
2022/03/10 08:30:59;;;;;;;;;;;6.90;98.30;;;;;;5091973;28;20367;-41
2022/03/10 08:33:24;;;;;;;;;;;7.10;98.80;;;;;;5092269;28;19908;-41
2022/03/10 08:35:50;;;;;;;;;;;7.20;98.20;;;;;;5092255;28;20164;-43
2022/03/10 08:38:16;;;;;;;;;;;7.30;98.20;;;;;;5091723;28;19960;-41
2022/03/10 08:40:41;;;;;;;;;;;7.30;96.50;;;;;;5091862;28;19962;-41
2022/03/10 08:43:11;;;;;;;;;;;7.30;96.00;;;;;;5091833;28;19908;-41
2022/03/10 08:45:38;;;;;;;;;;;7.50;97.50;;;;;;5091402;28;20003;-41
2022/03/10 08:48:04;;;;;;;;;;;7.60;97.70;;;;;;5087829;28;19923;-41
2022/03/10 08:50:29;;;;;;;;;;;7.50;96.10;;;;;;5090523;28;19908;-42
2022/03/10 08:52:55;;;;;;;;;;;7.50;95.90;;;;;;5090470;28;19951;-42
2022/03/10 08:55:20;;;;;;;;;;;7.60;96.70;;;;;;5093055;28;20022;-46
2022/03/10 08:57:47;;;;;;;;;;;7.90;96.30;;;;;;5096030;28;19951;-42
2022/03/10 09:00:13;;;;;;;;;;;7.70;96.00;;;;;;5095738;28;20381;-41
2022/03/10 09:02:41;;;;;;;;;;;7.80;95.50;;;;;;5096606;28;19909;-41
2022/03/10 09:05:08;;;;;;;;;;;7.80;96.70;;;;;;5097451;28;19934;-42
2022/03/10 09:07:34;;;;;;;;;;;7.80;96.20;;;;;;5098905;28;19912;-41
2022/03/10 09:09:59;;;;;;;;;;;8.00;95.50;;;;;;5091561;28;20017;-41
2022/03/10 09:12:25;;;;;;;;;;;8.00;95.80;;;;;;5095857;28;20316;-42
2022/03/10 09:14:50;;;;;;;;;;;8.40;96.80;;;;;;5092199;28;20283;-41
2022/03/10 09:17:16;;;;;;;;;;;8.40;94.90;;;;;;5096758;28;20342;-41
2022/03/10 09:19:41;;;;;;;;;;;8.70;96.60;;;;;;5103705;28;20290;-44
2022/03/10 09:22:07;;;;;;;;;;;8.80;94.80;;;;;;5103912;28;19908;-42
2022/03/10 09:24:32;;;;;;;;;;;8.80;93.90;;;;;;5096304;28;20262;-42
2022/03/10 09:26:58;;;;;;;;;;;8.90;93.80;;;;;;5102279;28;19916;-41
2022/03/10 09:29:24;;;;;;;;;;;9.10;94.90;;;;;;5110022;28;20004;-42
2022/03/10 09:31:49;;;;;;;;;;;9.20;94.40;;;;;;5094074;28;19957;-44
2022/03/10 09:34:15;;;;;;;;;;;9.10;92.70;;;;;;5095953;28;20277;-45
2022/03/10 09:36:40;;;;;;;;;;;8.90;92.10;;;;;;5096338;28;19915;-43
2022/03/10 09:39:06;;;;;;;;;;;9.00;92.90;;;;;;5095667;28;20267;-41
2022/03/10 09:41:32;;;;;;;;;;;9.20;93.00;;;;;;5095884;28;19908;-42
2022/03/10 09:43:59;;;;;;;;;;;9.40;92.90;;;;;;5097685;28;19942;-41
2022/03/10 09:46:25;;;;;;;;;;;9.50;91.80;;;;;;5096390;28;19920;-41
2022/03/10 09:48:52;;;;;;;;;;;9.50;91.30;;;;;;5096530;28;20110;-44
2022/03/10 09:51:20;;;;;;;;;;;9.50;91.00;;;;;;5095047;28;19908;-42
2022/03/10 09:53:46;;;;;;;;;;;9.40;90.70;;;;;;5095219;28;20019;-44
2022/03/10 09:56:11;;;;;;;;;;;9.50;91.50;;;;;;5095148;28;20350;-44
2022/03/10 09:58:37;;;;;;;;;;;9.50;90.70;;;;;;5095869;28;19910;-41
2022/03/10 10:01:03;;;;;;;;;;;9.60;90.50;;;;;;5095711;28;19919;-42
2022/03/10 10:03:29;;;;;;;;;;;9.90;90.60;;;;;;5094791;28;19912;-47
2022/03/10 10:05:58;;;;;;;;;;;10.10;90.30;;;;;;5094092;28;19939;-47
2022/03/10 10:08:23;;;;;;;;;;;10.20;90.40;;;;;;5093668;28;19930;-41
2022/03/10 10:10:51;;;;;;;;;;;10.40;90.40;;;;;;5095502;28;19912;-41
2022/03/10 10:13:26;;;;;;;;;;;10.60;89.30;;;;;;5095273;28;19908;-42
2022/03/10 10:15:53;;;;;;;;;;;10.60;89.40;;;;;;5095719;28;19995;-41
2022/03/10 10:18:19;;;;;;;;;;;10.60;88.00;;;;;;5095575;28;20039;-40
2022/03/10 10:20:48;;;;;;;;;;;10.50;87.80;;;;;;5095835;28;20367;-39
2022/03/10 10:23:15;;;;;;;;;;;10.40;88.10;;;;;;5095720;28;19908;-45
2022/03/10 10:26:16;;;;;;;;;;;10.30;87.50;;;;;;5094498;28;20297;-42
2022/03/10 10:28:42;;;;;;;;;;;10.20;86.70;;;;;;5069915;28;19912;-41
2022/03/10 10:31:21;;;;;;;;;;;10.10;87.60;;;;;;5073496;28;20251;-42
2022/03/10 10:33:57;;;;;;;;;;;10.60;86.60;;;;;;5097479;28;19965;-43
2022/03/10 10:36:26;;;;;;;;;;;10.70;85.50;;;;;;5103490;28;19908;-42
2022/03/10 10:38:53;;;;;;;;;;;10.60;85.00;;;;;;5113267;28;19965;-42
2022/03/10 10:41:19;;;;;;;;;;;10.90;85.50;;;;;;5093264;28;19908;-41
2022/03/10 10:43:49;;;;;;;;;;;10.90;83.80;;;;;;5095049;28;20204;-44
2022/03/10 10:46:22;;;;;;;;;;;11.10;83.90;;;;;;5078575;28;19913;-47
2022/03/10 10:48:47;;;;;;;;;;;11.20;82.60;;;;;;5090934;28;20380;-47
2022/03/10 10:51:13;;;;;;;;;;;11.10;82.20;;;;;;5115313;28;19911;-42
2022/03/10 10:53:39;;;;;;;;;;;10.90;82.10;;;;;;5100716;28;20054;-47
2022/03/10 10:56:05;;;;;;;;;;;10.90;80.60;;;;;;5098960;28;20265;-42
2022/03/10 10:58:31;;;;;;;;;;;11.20;82.90;;;;;;5085903;28;19912;-41
2022/03/10 11:00:57;;;;;;;;;;;11.50;82.30;;;;;;5074590;28;19908;-43
2022/03/10 11:03:24;;;;;;;;;;;11.40;79.00;;;;;;5087986;28;19915;-40
2022/03/10 11:05:50;;;;;;;;;;;11.20;79.80;;;;;;5090079;28;19916;-40
2022/03/10 11:08:17;;;;;;;;;;;11.40;79.20;;;;;;5095000;28;19912;-41
2022/03/10 11:10:42;;;;;;;;;;;11.40;78.80;;;;;;5092278;28;19954;-44
2022/03/10 11:13:08;;;;;;;;;;;11.40;78.50;;;;;;5092398;28;19943;-42
2022/03/10 11:15:34;;;;;;;;;;;11.40;79.20;;;;;;5084641;28;20314;-43
2022/03/10 11:18:00;;;;;;;;;;;11.40;78.50;;;;;;5075063;28;19970;-43
2022/03/10 11:20:28;;;;;;;;;;;11.20;77.50;;;;;;5074334;28;19947;-42
2022/03/10 11:22:56;;;;;;;;;;;11.40;78.60;;;;;;5074217;28;19916;-42
2022/03/10 11:25:48;;;;;;;;;;;11.50;77.50;;;;;;5073839;28;19912;-41
2022/03/10 11:28:27;;;;;;;;;;;11.60;76.70;;;;;;5073800;28;19938;-42
2022/03/10 11:30:54;;;;;;;;;;;11.50;76.20;;;;;;5073415;28;19924;-42
2022/03/10 11:33:20;;;;;;;;;;;11.60;75.20;;;;;;5073917;28;19920;-42
2022/03/10 11:35:46;;;;;;;;;;;11.50;73.30;;;;;;5074018;28;19954;-41
2022/03/10 11:38:12;;;;;;;;;;;11.60;72.20;;;;;;5073910;28;19909;-41
2022/03/10 11:40:41;;;;;;;;;;;11.60;71.10;;;;;;5073793;28;19915;-42
2022/03/10 11:43:06;;;;;;;;;;;11.70;69.90;;;;;;5073601;28;20003;-43
2022/03/10 11:45:32;;;;;;;;;;;11.80;69.80;;;;;;5089793;28;20019;-44
2022/03/10 11:48:16;;;;;;;;;;;11.90;69.00;;;;;;5089381;28;20359;-42
2022/03/10 11:50:42;;;;;;;;;;;11.80;67.00;;;;;;5073957;28;19909;-42
2022/03/10 11:53:09;;;;;;;;;;;11.80;67.70;;;;;;5073453;28;19915;-42
2022/03/10 11:55:41;;;;;;;;;;;11.80;65.70;;;;;;5073903;28;19957;-43
2022/03/10 11:58:08;;;;;;;;;;;11.90;66.50;;;;;;5073698;28;19915;-42
2022/03/10 12:00:40;;;;;;;;;;;12.10;65.60;;;;;;5072526;28;19909;-42
2022/03/10 12:03:07;;;;;;;;;;;12.10;65.70;;;;;;5073688;28;19951;-43
2022/03/10 12:05:51;;;;;;;;;;;12.40;68.30;;;;;;5073662;28;19930;-45
2022/03/10 12:08:17;;;;;;;;;;;12.50;65.30;;;;;;5073176;28;19913;-42
2022/03/10 12:10:43;;;;;;;;;;;12.40;64.50;;;;;;5073378;28;20374;-42
2022/03/10 12:13:22;;;;;;;;;;;12.50;65.80;;;;;;5073558;28;19912;-42
2022/03/10 12:15:48;;;;;;;;;;;12.10;64.70;;;;;;5073347;28;19999;-43
2022/03/10 12:18:18;;;;;;;;;;;12.30;67.30;;;;;;5073099;28;19947;-42
2022/03/10 12:20:44;;;;;;;;;;;12.10;64.30;;;;;;5073125;28;20012;-42
2022/03/10 12:23:15;;;;;;;;;;;12.20;64.20;;;;;;5073049;28;19931;-41
2022/03/10 12:25:44;;;;;;;;;;;12.20;62.40;;;;;;5073276;28;19923;-42
2022/03/10 12:28:30;;;;;;;;;;;12.10;62.10;;;;;;5073064;28;19999;-42
2022/03/10 12:31:04;;;;;;;;;;;11.60;61.90;;;;;;5071490;28;20416;-42
2022/03/10 12:33:30;;;;;;;;;;;12.10;61.40;;;;;;5073444;28;19915;-42
2022/03/10 12:35:57;;;;;;;;;;;12.00;59.80;;;;;;5073276;28;19995;-42
2022/03/10 12:38:35;;;;;;;;;;;12.20;59.80;;;;;;5073120;28;20390;-42
2022/03/10 12:41:02;;;;;;;;;;;12.30;59.90;;;;;;5073529;28;19958;-42
2022/03/10 12:43:27;;;;;;;;;;;12.30;59.50;;;;;;5071985;28;19952;-42
2022/03/10 12:45:53;;;;;;;;;;;12.40;57.70;;;;;;5072432;28;19968;-42
2022/03/10 12:48:24;;;;;;;;;;;12.50;57.60;;;;;;5073275;28;20331;-41
2022/03/10 12:50:50;;;;;;;;;;;12.50;57.20;;;;;;5073109;28;20270;-42
2022/03/10 12:53:16;;;;;;;;;;;12.40;58.20;;;;;;5073283;28;19909;-42
2022/03/10 12:55:43;;;;;;;;;;;12.40;57.20;;;;;;5073002;28;19915;-44
2022/03/10 12:58:09;;;;;;;;;;;12.10;57.20;;;;;;5072535;28;19912;-42
2022/03/10 13:00:35;;;;;;;;;;;12.10;57.70;;;;;;5072572;28;19909;-42
2022/03/10 13:03:01;;;;;;;;;;;12.30;57.00;;;;;;5073231;28;20309;-43
2022/03/10 13:05:27;;;;;;;;;;;12.30;57.10;;;;;;5073853;28;19966;-42
2022/03/10 13:07:53;;;;;;;;;;;12.30;56.70;;;;;;5082198;28;19961;-43
2022/03/10 13:10:20;;;;;;;;;;;12.20;55.80;;;;;;5092833;28;20357;-47
2022/03/10 13:12:48;;;;;;;;;;;12.00;56.10;;;;;;5078106;28;19909;-41
2022/03/10 13:15:17;;;;;;;;;;;12.30;55.80;;;;;;5072553;28;20012;-43
2022/03/10 13:17:44;;;;;;;;;;;12.40;55.80;;;;;;5072624;28;19915;-42
2022/03/10 13:20:10;;;;;;;;;;;12.30;54.90;;;;;;5072010;28;19909;-41
2022/03/10 13:22:35;;;;;;;;;;;12.10;55.20;;;;;;5088091;28;19915;-42
2022/03/10 13:25:01;;;;;;;;;;;12.20;55.90;;;;;;5072541;28;19977;-42
2022/03/10 13:27:27;;;;;;;;;;;12.30;55.30;;;;;;5072708;28;19912;-42
2022/03/10 13:29:53;;;;;;;;;;;12.30;54.50;;;;;;5072512;28;20308;-41
2022/03/10 13:32:20;;;;;;;;;;;12.10;54.20;;;;;;5072277;28;20049;-41
2022/03/10 13:34:46;;;;;;;;;;;12.00;54.80;;;;;;5072555;28;19999;-42
2022/03/10 13:37:12;;;;;;;;;;;12.10;54.90;;;;;;5105050;28;20331;-43
2022/03/10 13:39:38;;;;;;;;;;;12.20;55.00;;;;;;5072714;28;19908;-42
2022/03/10 13:42:04;;;;;;;;;;;12.20;54.40;;;;;;5073460;28;19980;-42
2022/03/10 13:44:30;;;;;;;;;;;12.20;54.50;;;;;;5076064;28;19912;-42
2022/03/10 13:47:06;;;;;;;;;;;12.30;54.30;;;;;;5076417;28;20271;-42
2022/03/10 13:49:39;;;;;;;;;;;12.10;54.30;;;;;;5076881;28;19919;-43
2022/03/10 13:52:09;;;;;;;;;;;12.00;54.10;;;;;;5076203;28;19908;-42
2022/03/10 13:54:37;;;;;;;;;;;12.20;53.50;;;;;;5108759;28;19958;-42
2022/03/10 13:57:03;;;;;;;;;;;12.20;53.40;;;;;;5082564;28;19912;-45
2022/03/10 13:59:30;;;;;;;;;;;12.30;54.50;;;;;;5094392;28;19919;-46
2022/03/10 14:01:55;;;;;;;;;;;12.30;54.60;;;;;;5094215;28;19938;-42
2022/03/10 14:04:21;;;;;;;;;;;12.40;54.90;;;;;;5094270;28;19920;-41
2022/03/10 14:06:50;;;;;;;;;;;12.40;54.60;;;;;;5095160;28;19922;-43
2022/03/10 14:09:18;;;;;;;;;;;12.40;54.70;;;;;;5098365;28;20358;-47
2022/03/10 14:11:43;;;;;;;;;;;12.20;55.80;;;;;;5093974;28;19912;-44
2022/03/10 14:14:09;;;;;;;;;;;11.90;56.70;;;;;;5094648;28;19908;-41
2022/03/10 14:16:35;;;;;;;;;;;12.00;54.70;;;;;;5095542;28;19908;-40
2022/03/10 14:19:03;;;;;;;;;;;12.20;54.10;;;;;;5094315;28;20007;-45
2022/03/10 14:21:28;;;;;;;;;;;12.40;54.00;;;;;;5093200;28;19912;-44
2022/03/10 14:23:58;;;;;;;;;;;12.50;53.70;;;;;;5074898;28;20011;-41
2022/03/10 14:26:23;;;;;;;;;;;12.30;54.50;;;;;;5088291;28;19947;-44
2022/03/10 14:28:50;;;;;;;;;;;12.20;52.40;;;;;;5093486;28;19964;-44